地図

経路データ

SID SEASON NUMBER BASIN SUBBASIN NAME ISO_TIME NATURE LAT LON WMO_WIND WMO_PRES WMO_AGENCY TRACK_TYPE DIST2LAND LANDFALL IFLAG USA_AGENCY USA_ATCF_ID USA_LAT USA_LON USA_RECORD USA_STATUS USA_WIND USA_PRES USA_SSHS USA_R34_NE USA_R34_SE USA_R34_SW USA_R34_NW USA_R50_NE USA_R50_SE USA_R50_SW USA_R50_NW USA_R64_NE USA_R64_SE USA_R64_SW USA_R64_NW USA_POCI USA_ROCI USA_RMW USA_EYE TOKYO_LAT TOKYO_LON TOKYO_GRADE TOKYO_WIND TOKYO_PRES TOKYO_R50_DIR TOKYO_R50_LONG TOKYO_R50_SHORT TOKYO_R30_DIR TOKYO_R30_LONG TOKYO_R30_SHORT TOKYO_LAND CMA_LAT CMA_LON CMA_CAT CMA_WIND CMA_PRES HKO_LAT HKO_LON HKO_CAT HKO_WIND HKO_PRES NEWDELHI_LAT NEWDELHI_LON NEWDELHI_GRADE NEWDELHI_WIND NEWDELHI_PRES NEWDELHI_CI NEWDELHI_DP NEWDELHI_POCI REUNION_LAT REUNION_LON REUNION_TYPE REUNION_WIND REUNION_PRES REUNION_TNUM REUNION_CI REUNION_RMW REUNION_R34_NE REUNION_R34_SE REUNION_R34_SW REUNION_R34_NW REUNION_R50_NE REUNION_R50_SE REUNION_R50_SW REUNION_R50_NW REUNION_R64_NE REUNION_R64_SE REUNION_R64_SW REUNION_R64_NW BOM_LAT BOM_LON BOM_TYPE BOM_WIND BOM_PRES BOM_TNUM BOM_CI BOM_RMW BOM_R34_NE BOM_R34_SE BOM_R34_SW BOM_R34_NW BOM_R50_NE BOM_R50_SE BOM_R50_SW BOM_R50_NW BOM_R64_NE BOM_R64_SE BOM_R64_SW BOM_R64_NW BOM_ROCI BOM_POCI BOM_EYE BOM_POS_METHOD BOM_PRES_METHOD NADI_LAT NADI_LON NADI_CAT NADI_WIND NADI_PRES WELLINGTON_LAT WELLINGTON_LON WELLINGTON_WIND WELLINGTON_PRES DS824_LAT DS824_LON DS824_STAGE DS824_WIND DS824_PRES TD9636_LAT TD9636_LON TD9636_STAGE TD9636_WIND TD9636_PRES TD9635_LAT TD9635_LON TD9635_WIND TD9635_PRES TD9635_ROCI NEUMANN_LAT NEUMANN_LON NEUMANN_CLASS NEUMANN_WIND NEUMANN_PRES MLC_LAT MLC_LON MLC_CLASS MLC_WIND MLC_PRES USA_GUST BOM_GUST BOM_GUST_PER REUNION_GUST REUNION_GUST_PER USA_SEAHGT USA_SEARAD_NE USA_SEARAD_SE USA_SEARAD_SW USA_SEARAD_NW STORM_SPEED STORM_DIR
1981154N19266 1981 38 NA GM NOT_NAMED 1981-06-03 06:00:00 TS 19.4000 -94.3000 20 hurdat_atl main 115 109 O_____________ hurdat_atl AL041981 19.4000 -94.3000 TD 20 -1 9 306
1981154N19266 1981 38 NA GM NOT_NAMED 1981-06-03 09:00:00 TS 19.6703 -94.6946 main 123 119 P_____________ AL041981 19.6703 -94.6946 TD 22 -1 9 312
1981154N19266 1981 38 NA GM NOT_NAMED 1981-06-03 12:00:00 TS 20.0000 -95.0000 25 hurdat_atl main 145 137 O_____________ hurdat_atl AL041981 20.0000 -95.0000 TD 25 -1 9 330
1981154N19266 1981 38 NA GM NOT_NAMED 1981-06-03 15:00:00 TS 20.4273 -95.1654 main 137 137 P_____________ AL041981 20.4273 -95.1654 TD 25 -1 9 343
1981154N19266 1981 38 NA GM NOT_NAMED 1981-06-03 18:00:00 TS 20.9000 -95.3000 25 hurdat_atl main 160 160 O_____________ hurdat_atl AL041981 20.9000 -95.3000 TD 25 -1 10 338
1981154N19266 1981 38 NA GM NOT_NAMED 1981-06-03 21:00:00 TS 21.3426 -95.5573 main 167 155 P_____________ AL041981 21.3426 -95.5573 TD 27 -1 10 333
1981154N19266 1981 38 NA GM NOT_NAMED 1981-06-04 00:00:00 TS 21.8000 -95.8000 30 hurdat_atl main 156 151 O_____________ hurdat_atl AL041981 21.8000 -95.8000 TD 30 -1 10 341
1981154N19266 1981 38 NA GM NOT_NAMED 1981-06-04 03:00:00 TS 22.3074 -95.9079 main 164 164 P_____________ AL041981 22.3074 -95.9079 TD 30 -1 10 349
1981154N19266 1981 38 NA GM NOT_NAMED 1981-06-04 06:00:00 TS 22.8000 -96.0000 30 hurdat_atl main 184 163 O_____________ hurdat_atl AL041981 22.8000 -96.0000 TD 30 -1 9 341
1981154N19266 1981 38 NA GM NOT_NAMED 1981-06-04 09:00:00 TS 23.1701 -96.2222 main 163 142 P_____________ AL041981 23.1701 -96.2222 TD 30 -1 9 335
1981154N19266 1981 38 NA GM NOT_NAMED 1981-06-04 12:00:00 TS 23.6000 -96.4000 30 hurdat_atl main 142 135 O_____________ hurdat_atl AL041981 23.6000 -96.4000 TD 30 -1 11 352
1981154N19266 1981 38 NA GM NOT_NAMED 1981-06-04 15:00:00 TS 24.2700 -96.3879 main 133 110 P_____________ AL041981 24.2700 -96.3879 TD 30 -1 14 4
1981154N19266 1981 38 NA GM NOT_NAMED 1981-06-04 18:00:00 TS 25.0000 -96.3000 30 hurdat_atl main 110 90 O_____________ hurdat_atl AL041981 25.0000 -96.3000 TD 30 -1 13 5
1981154N19266 1981 38 NA GM NOT_NAMED 1981-06-04 21:00:00 TS 25.5925 -96.2499 main 100 89 P_____________ AL041981 25.5925 -96.2499 TD 30 -1 12 4
1981154N19266 1981 38 NA GM NOT_NAMED 1981-06-05 00:00:00 TS 26.2000 -96.2000 30 hurdat_atl main 92 92 O_____________ hurdat_atl AL041981 26.2000 -96.2000 TD 30 -1 14 4
1981154N19266 1981 38 NA GM NOT_NAMED 1981-06-05 03:00:00 TS 26.9425 -96.1500 main 133 83 P_____________ AL041981 26.9425 -96.1500 TD 30 -1 15 3
1981154N19266 1981 38 NA GM NOT_NAMED 1981-06-05 06:00:00 TS 27.7000 -96.1000 30 hurdat_atl main 83 24 O_____________ hurdat_atl AL041981 27.7000 -96.1000 TD 30 -1 14 2
1981154N19266 1981 38 NA GM NOT_NAMED 1981-06-05 09:00:00 TS 28.3648 -96.0941 main 14 0 P_____________ AL041981 28.3648 -96.0941 TD 27 -1 13 4
1981154N19266 1981 38 NA NA NOT_NAMED 1981-06-05 12:00:00 TS 29.0000 -96.0000 25 hurdat_atl main 0 0 O_____________ hurdat_atl AL041981 29.0000 -96.0000 TD 25 -1 13 15
1981154N19266 1981 38 NA NA NOT_NAMED 1981-06-05 15:00:00 TS 29.6454 -95.7117 main 0 0 P_____________ AL041981 29.6454 -95.7117 TD -1 14 25
1981154N19266 1981 38 NA NA NOT_NAMED 1981-06-05 18:00:00 TS 30.3000 -95.3000 hurdat_atl main 0 O_____________ hurdat_atl AL041981 30.3000 -95.3000 TD -1 15 29

IBTrACS Databaseについて

本データベースは、米国NOAAが公開する1842年以降の世界の熱帯低気圧のベストトラックデータアーカイブInternational Best Track Archive for Climate Stewardship (IBTrACS)を、ウェブで閲覧しやすい形式に変換したものです。

最終更新日:2021-11-26